createdAt,value
2023-02-03T12:21:54.483Z,5.65
2023-02-03T12:24:55.732Z,5.73
2023-02-03T12:27:54.484Z,5.79
2023-02-03T12:30:30.301Z,5.83
2023-02-03T12:33:12.192Z,5.87
2023-02-03T12:36:07.795Z,5.89
2023-02-03T12:39:12.015Z,5.93
2023-02-03T12:41:47.671Z,5.97
2023-02-03T12:44:40.023Z,6.02
2023-02-03T12:47:17.957Z,6.08
2023-02-03T12:49:58.796Z,6.14
2023-02-03T12:52:43.756Z,6.18
2023-02-03T12:55:46.332Z,6.24
2023-02-03T12:58:40.111Z,6.31
2023-02-03T13:01:24.751Z,6.39
2023-02-03T13:03:58.329Z,6.44
2023-02-03T13:06:44.045Z,6.49
2023-02-03T13:09:48.066Z,6.56
2023-02-03T13:12:35.175Z,6.63
2023-02-03T13:15:24.130Z,6.69
2023-02-03T13:18:05.323Z,6.74
2023-02-03T13:20:39.736Z,6.75
2023-02-03T13:23:25.156Z,6.77
2023-02-03T13:26:14.107Z,6.81
2023-02-03T13:29:15.240Z,6.84
2023-02-03T13:32:00.345Z,6.87
2023-02-03T13:34:53.523Z,6.95
2023-02-03T13:38:17.664Z,7.04
2023-02-03T13:41:02.119Z,7.13
2023-02-03T13:43:39.457Z,7.12
2023-02-03T13:46:19.651Z,7.10
2023-02-03T13:48:53.315Z,7.10
2023-02-03T13:51:29.411Z,7.07
2023-02-03T13:54:14.899Z,7.01
2023-02-03T13:56:56.538Z,6.92
2023-02-03T13:59:39.181Z,6.83
2023-02-03T14:02:20.254Z,6.73
2023-02-03T14:04:49.439Z,6.66
2023-02-03T14:07:24.997Z,6.60
2023-02-03T14:10:13.774Z,6.58
2023-02-03T14:12:52.074Z,6.64
2023-02-03T14:15:32.389Z,6.60
2023-02-03T14:18:26.202Z,6.55
2023-02-03T14:21:09.041Z,6.52
2023-02-03T14:23:46.048Z,6.51
2023-02-03T14:26:31.491Z,6.48
2023-02-03T14:29:11.862Z,6.46
2023-02-03T14:31:56.766Z,6.43
2023-02-03T14:34:30.161Z,6.40
2023-02-03T14:37:16.613Z,6.37
2023-02-03T14:40:26.370Z,6.32
2023-02-03T14:43:20.263Z,6.32
2023-02-03T14:45:55.314Z,6.35
2023-02-03T14:48:52.845Z,6.36
2023-02-03T14:51:52.980Z,6.37
2023-02-03T14:54:44.370Z,6.36
2023-02-03T14:57:40.124Z,6.35
2023-02-03T15:00:25.793Z,6.32
2023-02-03T15:03:15.563Z,6.30
2023-02-03T15:05:47.277Z,6.27
2023-02-03T15:08:40.894Z,6.26
2023-02-03T15:11:30.471Z,6.24
2023-02-03T15:14:25.477Z,6.24
2023-02-03T15:17:14.029Z,6.25
2023-02-03T15:19:43.535Z,6.22
2023-02-03T15:22:40.472Z,6.20
2023-02-03T15:25:22.267Z,6.18
2023-02-03T15:27:54.414Z,6.20
2023-02-03T15:30:28.139Z,6.20
2023-02-03T15:33:08.496Z,6.20
2023-02-03T15:35:42.598Z,6.20
2023-02-03T15:38:19.116Z,6.21
2023-02-03T15:40:51.875Z,6.21
2023-02-03T15:43:38.487Z,6.21
2023-02-03T15:46:24.711Z,6.22
2023-02-03T15:49:09.022Z,6.21
2023-02-03T15:51:50.657Z,6.22
2023-02-03T15:54:33.593Z,6.22
2023-02-03T15:57:15.421Z,6.27
2023-02-03T15:59:53.908Z,6.31
2023-02-03T16:02:30.760Z,6.32
2023-02-03T16:05:28.112Z,6.25
2023-02-03T16:08:17.213Z,6.16
2023-02-03T16:10:46.192Z,6.12
2023-02-03T16:13:24.442Z,6.09
2023-02-03T16:16:06.239Z,6.01
2023-02-03T16:18:40.326Z,5.98
2023-02-03T16:21:35.619Z,5.97
2023-02-03T16:24:06.938Z,5.92
2023-02-03T16:26:38.832Z,5.89
2023-02-03T16:29:36.412Z,5.80
2023-02-03T16:32:38.336Z,5.72
2023-02-03T16:35:29.749Z,5.64
2023-02-03T16:38:32.939Z,5.57
2023-02-03T16:41:39.384Z,5.50
2023-02-03T16:44:30.869Z,5.45
2023-02-03T16:47:25.647Z,5.40
2023-02-03T16:53:49.355Z,5.25
2023-02-03T16:56:20.172Z,5.22
2023-02-03T16:58:49.622Z,5.16
2023-02-03T17:01:25.738Z,5.15
2023-02-03T17:03:56.530Z,5.15
2023-02-03T17:06:25.708Z,5.13
2023-02-03T17:08:56.646Z,5.11
2023-02-03T17:11:29.374Z,5.11
2023-02-03T17:13:58.751Z,5.13
2023-02-03T17:16:28.790Z,5.13
2023-02-03T17:18:57.949Z,5.15
2023-02-03T17:21:29.148Z,5.12
2023-02-03T17:24:01.206Z,5.11
2023-02-03T17:26:30.269Z,5.08
2023-02-03T17:29:05.305Z,5.10
2023-02-03T17:31:34.665Z,5.07
2023-02-03T17:34:06.613Z,5.08
2023-02-03T17:36:36.581Z,5.08
2023-02-03T17:55:34.223Z,5.20
2023-02-03T17:58:04.504Z,5.26
2023-02-03T18:00:33.876Z,5.27
2023-02-03T18:03:03.995Z,5.28
2023-02-03T18:05:33.206Z,5.29
2023-02-03T18:08:09.043Z,5.29
2023-02-03T18:10:45.878Z,5.31
2023-02-03T18:13:14.735Z,5.33
2023-02-03T18:15:43.881Z,5.37
2023-02-03T18:18:13.900Z,5.39
2023-02-03T18:20:43.514Z,5.43
2023-02-03T18:23:13.087Z,5.48
2023-02-03T18:25:42.554Z,5.51
2023-02-03T18:28:12.657Z,5.55
2023-02-03T18:30:42.347Z,5.56
2023-02-03T18:33:12.019Z,5.56
2023-02-03T18:35:45.400Z,5.56
2023-02-03T18:38:22.321Z,5.54
2023-02-03T18:41:00.389Z,5.52
2023-02-03T18:43:36.686Z,5.53
2023-02-03T18:46:10.463Z,5.56
2023-02-03T18:49:03.561Z,5.56
2023-02-03T18:51:36.423Z,5.56
2023-02-03T18:54:15.724Z,5.58
2023-02-03T18:57:15.355Z,5.60
2023-02-03T18:59:50.080Z,5.63
2023-02-03T19:02:26.274Z,5.64
2023-02-03T19:05:03.674Z,5.64
2023-02-03T19:07:36.790Z,5.65
2023-02-03T19:10:06.252Z,5.67
2023-02-03T19:12:35.202Z,5.66
2023-02-03T19:15:05.484Z,5.68
2023-02-03T19:17:35.086Z,5.70
2023-02-03T19:20:06.332Z,5.71
2023-02-03T19:22:36.109Z,5.71
2023-02-03T19:25:06.224Z,5.71
2023-02-03T19:27:37.606Z,5.68
2023-02-03T19:30:15.996Z,5.69
2023-02-03T19:32:50.352Z,5.71
2023-02-03T19:35:35.162Z,5.69
2023-02-03T19:38:07.917Z,5.70
2023-02-03T19:40:38.978Z,5.65
2023-02-03T19:43:16.364Z,5.60
2023-02-03T19:46:18.218Z,5.58
2023-02-03T19:48:57.199Z,5.57
2023-02-03T19:51:41.391Z,5.54
2023-02-03T19:54:18.075Z,5.51
2023-02-03T19:57:00.016Z,5.49
2023-02-03T19:59:35.324Z,5.49
2023-02-03T20:02:14.344Z,5.48
2023-02-03T20:04:53.039Z,5.49
2023-02-03T20:07:34.668Z,5.48
2023-02-03T20:10:04.280Z,5.46
2023-02-03T20:12:34.324Z,5.45
2023-02-03T20:15:04.044Z,5.44
2023-02-03T20:17:33.799Z,5.42
2023-02-03T20:20:23.839Z,5.39
2023-02-03T20:22:53.873Z,5.37
2023-02-03T20:25:24.031Z,5.37
2023-02-03T20:27:54.212Z,5.34
2023-02-03T20:30:23.277Z,5.32
2023-02-03T20:32:55.195Z,5.30
2023-02-03T20:35:25.788Z,5.28
2023-02-03T20:37:55.942Z,5.28
2023-02-03T20:40:26.955Z,5.26
2023-02-03T20:43:06.623Z,5.26
2023-02-03T20:45:38.652Z,5.24
2023-02-03T20:48:12.695Z,5.22
2023-02-03T20:50:50.577Z,5.19
2023-02-03T20:53:23.156Z,5.17
2023-02-03T20:55:59.115Z,5.16
2023-02-03T20:58:35.926Z,5.12
2023-02-03T21:01:14.665Z,5.13
2023-02-03T21:04:02.545Z,5.14
2023-02-03T21:06:35.922Z,5.17
2023-02-03T21:09:19.265Z,5.16
2023-02-03T21:11:48.777Z,5.12
2023-02-03T21:14:20.959Z,5.11
2023-02-03T21:16:50.529Z,5.09
2023-02-03T21:19:32.924Z,5.10
2023-02-03T21:22:16.083Z,5.11
2023-02-03T21:24:50.031Z,5.10
2023-02-03T21:27:30.162Z,5.11
2023-02-03T21:30:01.455Z,5.12
2023-02-03T21:32:41.532Z,5.14
2023-02-03T21:35:32.427Z,5.19
2023-02-03T21:38:32.483Z,5.15
2023-02-03T21:41:02.477Z,5.15
2023-02-03T21:43:33.574Z,5.16
2023-02-03T21:46:05.900Z,5.16
2023-02-03T21:48:41.922Z,5.13
2023-02-03T21:51:20.909Z,5.14
2023-02-03T21:54:03.508Z,5.12
2023-02-03T21:56:42.030Z,5.13
2023-02-03T21:59:23.290Z,5.14
2023-02-03T22:02:02.694Z,5.13
2023-02-03T22:04:32.652Z,5.14
2023-02-03T22:07:01.640Z,5.12
2023-02-03T22:09:33.494Z,5.10
2023-02-03T22:12:02.387Z,5.11
2023-02-03T22:14:31.477Z,5.13
2023-02-03T22:17:00.689Z,5.17
2023-02-03T22:19:50.469Z,5.18
2023-02-03T22:22:21.501Z,5.17
2023-02-03T22:24:51.524Z,5.18
2023-02-03T22:27:20.919Z,5.17
2023-02-03T22:29:52.349Z,5.19
2023-02-03T22:32:26.595Z,5.18
2023-02-03T22:34:58.858Z,5.18
2023-02-03T22:37:33.231Z,5.17
2023-02-03T22:40:05.110Z,5.19
2023-02-03T22:42:36.282Z,5.19
2023-02-03T22:45:05.898Z,5.18
2023-02-03T22:47:34.911Z,5.16
2023-02-03T22:50:05.568Z,5.20
2023-02-03T22:52:34.500Z,5.21
2023-02-03T22:55:04.113Z,5.17
2023-02-03T22:57:33.330Z,5.17
2023-02-03T23:00:02.314Z,5.19
2023-02-03T23:02:34.566Z,5.19
2023-02-03T23:05:03.724Z,5.20
2023-02-03T23:07:32.455Z,5.20
2023-02-03T23:10:01.387Z,5.18
2023-02-03T23:12:37.819Z,5.14
2023-02-03T23:15:09.944Z,5.13
2023-02-03T23:17:41.646Z,5.11
2023-02-03T23:20:15.361Z,5.08
2023-02-03T23:22:44.952Z,5.06
2023-02-03T23:25:13.630Z,5.04
2023-02-03T23:27:45.288Z,5.06
2023-02-03T23:30:16.540Z,5.06
2023-02-03T23:32:45.067Z,5.05
2023-02-03T23:35:32.483Z,5.03
2023-02-03T23:38:00.896Z,5.01
2023-02-03T23:40:32.304Z,5.01
2023-02-03T23:43:01.281Z,4.98
2023-02-03T23:45:29.964Z,4.98
2023-02-03T23:48:02.838Z,4.95
2023-02-03T23:50:40.048Z,4.87
2023-02-03T23:53:10.345Z,4.83
2023-02-03T23:55:41.282Z,4.77
2023-02-03T23:58:13.240Z,4.66
